Strona główna
METAR-TAF:

METAR-TAF

Lotnisko :

Greenville, Maine, Stany Zjednoczone

Szerokość geograficzna: 45-28N, Długość geograficzna: 069-35W, wysokość: 427 m

Aktualna obserwacja pogody

Raport powstał 55 minut temu, godzina 13:56 UTC
Wiatr 11 kt od zachodnio-północny zachód w porywach dochodzący do 19 kt, zmienny między zachodnio-południowy zachód i północny zachód
Temperatura -8°C
Wilgotność 67%
Ciśnienie 1024 hPa

METAR: KGNR 181356Z AUTO 30011G19KT 250V310 M08/M13 A3024 RMK AO1 SLP264 T10781133

czas: 09:51 (14:51 UTC)


TAF: brakujący

Obserwacja i prognoza pogody dla ponad 4000 lotnisk (raport METAR i TAF).

Dostępne stacje oznaczono żółtymi i czerwonymi punktami na mapie.

Najedź kursorem aby zobaczyć nazwę stacji.

Kliknij aby zobaczyć obserwacje i prognozy pogody.

Aby zmienić mapę: kliknij na zielony przycisk z czarnym krzyżykiem, aby powiększyć; na zielony przycisk z myślnikiem, aby pomniejszyć; na zielone strzałki, aby przejść do map sąsiednich.


METAR-TAF: